Time;durP1;ratioP1;P1;durP2;ratioP2;P2;SDS_P1;SDS_P2;PMS_P1;PMS_P2;Temp;Humidity;BMP_temperature;BMP_pressure;BME280_temperature;BME280_humidity;BME280_pressure;Samples;Min_cycle;Max_cycle;Signal;HPM_P1;HPM_P2
2023/04/10 00:02:38;;;;;;;0.35;0.30;;;;;;;14.59;51.93;97102.09;10440906;28;20037;-29
2023/04/10 00:07:39;;;;;;;0.50;0.50;;;;;;;14.59;51.94;97096.22;10441337;28;20339;-29
2023/04/10 00:12:39;;;;;;;0.33;0.30;;;;;;;14.57;51.75;97093.66;10449285;28;20116;-28
2023/04/10 00:17:40;;;;;;;0.40;0.40;;;;;;;14.56;51.66;97091.97;10447425;28;20049;-28
2023/04/10 00:22:41;;;;;;;0.50;0.50;;;;;;;14.56;51.89;97097.00;10440992;28;20029;-28
2023/04/10 00:27:42;;;;;;;0.38;0.38;;;;;;;14.56;51.91;97097.00;10446958;28;20029;-28
2023/04/10 00:32:42;;;;;;;0.33;0.33;;;;;;;14.56;52.15;97096.13;10447808;28;20040;-28
2023/04/10 00:37:43;;;;;;;0.30;0.30;;;;;;;14.55;51.57;97077.66;10430501;28;20037;-29
2023/04/10 00:42:43;;;;;;;0.50;0.50;;;;;;;14.59;52.37;97076.91;10440869;28;20036;-28
2023/04/10 00:47:44;;;;;;;0.40;0.40;;;;;;;14.63;52.17;97077.81;10434221;28;20033;-28
2023/04/10 00:52:44;;;;;;;0.45;0.45;;;;;;;14.66;51.84;97067.78;10424517;28;20410;-28
2023/04/10 00:57:46;;;;;;;0.80;0.70;;;;;;;14.63;52.04;97067.72;10445080;28;20036;-28
2023/04/10 01:02:46;;;;;;;0.57;0.50;;;;;;;14.53;51.85;97069.19;10439104;28;20048;-28
2023/04/10 01:08:16;;;;;;;0.40;0.40;;;;;;;14.53;51.96;97059.13;10445929;28;20585;-28
2023/04/10 01:13:40;;;;;;;0.40;0.40;;;;;;;14.54;51.64;97058.34;10443407;28;20384;-29
2023/04/10 01:18:45;;;;;;;0.50;0.50;;;;;;;14.56;51.42;97056.69;10439619;28;20033;-29
2023/04/10 01:24:05;;;;;;;0.60;0.60;;;;;;;14.56;51.70;97056.69;10451241;28;20036;-29
2023/04/10 01:29:08;;;;;;;0.50;0.50;;;;;;;14.55;51.65;97057.50;10450076;28;20080;-28
2023/04/10 01:34:22;;;;;;;0.40;0.40;;;;;;;14.54;51.32;97057.47;10448867;28;20489;-28
2023/04/10 01:39:25;;;;;;;0.32;0.32;;;;;;;14.54;51.84;97067.53;10448445;28;20090;-29
2023/04/10 01:44:33;;;;;;;0.65;0.55;;;;;;;14.53;51.60;97060.81;10445170;28;20036;-28
2023/04/10 01:49:34;;;;;;;0.55;0.55;;;;;;;14.52;51.87;97067.50;10451229;28;20048;-28
2023/04/10 01:54:39;;;;;;;0.40;0.40;;;;;;;14.53;51.63;97059.13;10453152;28;20029;-29
2023/04/10 01:59:40;;;;;;;0.50;0.50;;;;;;;14.53;51.58;97055.78;10452798;28;20483;-28
2023/04/10 02:04:41;;;;;;;0.45;0.45;;;;;;;14.52;51.61;97052.38;10444882;28;20037;-29
2023/04/10 02:09:53;;;;;;;0.43;0.40;;;;;;;14.52;51.91;97049.88;10443854;28;20036;-29
2023/04/10 02:14:58;;;;;;;0.98;0.65;;;;;;;14.56;51.97;97051.66;10444279;28;20091;-29
2023/04/10 02:19:59;;;;;;;0.43;0.43;;;;;;;14.62;52.33;97061.00;10449125;28;20124;-29
2023/04/10 02:25:03;;;;;;;0.40;0.40;;;;;;;14.60;51.90;97062.63;10440865;28;20044;-28
2023/04/10 02:30:05;;;;;;;0.30;0.30;;;;;;;14.52;51.54;97059.94;10445397;28;20029;-28
2023/04/10 02:35:08;;;;;;;0.57;0.40;;;;;;;14.49;51.77;97049.81;10450549;28;20037;-29
2023/04/10 02:40:10;;;;;;;0.30;0.30;;;;;;;14.49;51.62;97047.31;10446727;28;20033;-29
2023/04/10 02:45:20;;;;;;;0.38;0.38;;;;;;;14.49;51.74;97049.81;10447291;28;20413;-28
2023/04/10 02:50:20;;;;;;;0.30;0.30;;;;;;;14.52;51.24;97049.88;10446090;28;20024;-28
2023/04/10 02:55:21;;;;;;;0.70;0.60;;;;;;;14.50;51.77;97056.56;10444960;28;20079;-29
2023/04/10 03:00:21;;;;;;;0.35;0.35;;;;;;;14.47;51.73;97046.44;10436712;28;20029;-28
2023/04/10 03:05:50;;;;;;;0.53;0.53;;;;;;;14.50;51.71;97046.47;10419041;28;20122;-29
2023/04/10 03:10:56;;;;;;;0.40;0.40;;;;;;;14.50;51.72;97050.66;10425122;28;20037;-28
2023/04/10 03:15:57;;;;;;;0.60;0.40;;;;;;;14.49;51.80;97041.41;10440352;28;20040;-28
2023/04/10 03:20:57;;;;;;;0.60;0.50;;;;;;;14.49;51.52;97027.16;10441403;28;20287;-28
2023/04/10 03:25:58;;;;;;;0.40;0.40;;;;;;;14.48;51.23;97019.53;10449269;28;20029;-28
2023/04/10 03:31:02;;;;;;;0.40;0.40;;;;;;;14.48;51.57;97012.84;10440300;28;20283;-28
2023/04/10 03:36:07;;;;;;;0.50;0.50;;;;;;;14.47;52.10;97001.09;10449326;28;20507;-29
2023/04/10 03:41:07;;;;;;;0.40;0.40;;;;;;;14.49;52.14;96996.91;10440131;28;20056;-28
2023/04/10 03:46:08;;;;;;;0.70;0.70;;;;;;;14.53;52.16;96997.84;10448953;28;20037;-28
2023/04/10 03:51:14;;;;;;;0.85;0.40;;;;;;;14.56;51.71;96995.38;10447970;28;20033;-29
2023/04/10 03:56:15;;;;;;;0.50;0.50;;;;;;;14.54;51.88;96992.84;10436794;28;20404;-29
2023/04/10 04:01:16;;;;;;;0.40;0.40;;;;;;;14.49;51.52;96989.38;10435032;28;20033;-29
2023/04/10 04:06:45;;;;;;;0.50;0.50;;;;;;;14.46;51.46;96994.34;10440686;28;20049;-29
2023/04/10 04:12:03;;;;;;;0.60;0.60;;;;;;;14.47;51.88;96996.03;10425545;28;20032;-28
2023/04/10 04:17:26;;;;;;;0.50;0.50;;;;;;;14.47;51.40;96998.56;10447901;28;20071;-29
2023/04/10 04:22:36;;;;;;;0.50;0.50;;;;;;;14.44;51.66;96995.97;10441186;28;20072;-28
2023/04/10 04:27:49;;;;;;;0.38;0.38;;;;;;;14.48;51.49;97006.94;10439089;28;20044;-29
2023/04/10 04:33:04;;;;;;;0.40;0.40;;;;;;;14.47;51.60;97006.13;10431406;28;20033;-29
2023/04/10 04:38:23;;;;;;;0.50;0.50;;;;;;;14.45;51.40;97005.22;10440748;28;20037;-28
2023/04/10 04:43:54;;;;;;;0.40;0.40;;;;;;;14.45;51.74;96992.63;10423223;28;20041;-28
2023/04/10 04:49:13;;;;;;;0.50;0.50;;;;;;;14.44;51.69;97003.53;10445030;28;20487;-28
2023/04/10 04:54:32;;;;;;;0.50;0.50;;;;;;;14.44;51.75;96990.94;10446640;28;20049;-28
2023/04/10 04:59:52;;;;;;;0.43;0.43;;;;;;;14.41;51.61;96987.50;10434278;28;20048;-28
2023/04/10 05:05:16;;;;;;;0.45;0.45;;;;;;;14.42;51.42;96997.63;10445975;28;20250;-28
2023/04/10 05:10:20;;;;;;;0.50;0.50;;;;;;;14.43;51.86;97001.81;10447636;28;20116;-28
2023/04/10 05:15:39;;;;;;;0.95;0.90;;;;;;;14.49;51.60;96999.44;10438365;28;20499;-29
2023/04/10 05:20:59;;;;;;;0.80;0.68;;;;;;;14.54;51.46;96995.34;10452346;28;20088;-29
2023/04/10 05:26:29;;;;;;;0.68;0.52;;;;;;;14.50;51.62;96996.09;10411556;28;20077;-29
2023/04/10 05:31:43;;;;;;;0.50;0.50;;;;;;;14.44;51.60;97006.03;10445774;28;20033;-28
2023/04/10 05:37:02;;;;;;;0.57;0.57;;;;;;;14.41;51.47;97003.47;10447570;28;20033;-28
2023/04/10 05:42:15;;;;;;;0.60;0.60;;;;;;;14.42;51.64;96999.28;10452709;28;20410;-28
2023/04/10 05:47:44;;;;;;;0.50;0.50;;;;;;;14.43;51.42;96996.78;10416553;28;20037;-28
2023/04/10 05:52:53;;;;;;;0.63;0.60;;;;;;;14.43;51.82;96999.31;10451117;28;20188;-28
2023/04/10 05:58:10;;;;;;;0.50;0.50;;;;;;;14.42;51.53;96997.63;10453303;28;20609;-28
2023/04/10 06:03:29;;;;;;;0.50;0.50;;;;;;;14.43;51.49;96986.72;10444861;28;20056;-28
2023/04/10 06:08:33;;;;;;;0.40;0.40;;;;;;;14.40;51.73;96991.69;10449396;28;20440;-29
2023/04/10 06:13:33;;;;;;;0.50;0.50;;;;;;;14.41;51.81;96993.41;10453922;28;20060;-30
2023/04/10 06:18:37;;;;;;;0.60;0.50;;;;;;;14.40;51.83;96995.88;10442792;28;20661;-28
2023/04/10 06:23:37;;;;;;;0.60;0.60;;;;;;;14.43;51.85;96993.44;10450550;28;20459;-28
2023/04/10 06:28:37;;;;;;;0.60;0.60;;;;;;;14.40;51.53;96991.69;10453121;28;20029;-29
2023/04/10 06:33:38;;;;;;;0.50;0.50;;;;;;;14.40;51.87;96996.75;10446708;28;20037;-28
2023/04/10 06:38:41;;;;;;;0.40;0.40;;;;;;;14.40;51.53;96996.75;10439819;28;20041;-28
2023/04/10 06:43:41;;;;;;;0.68;0.68;;;;;;;14.46;51.88;96996.88;10452930;28;20503;-29
2023/04/10 06:48:42;;;;;;;0.77;0.77;;;;;;;14.50;51.89;97001.13;10447929;28;20487;-29
2023/04/10 06:53:42;;;;;;;0.63;0.63;;;;;;;14.52;51.59;96998.66;10430369;28;20041;-29
2023/04/10 06:58:42;;;;;;;0.60;0.60;;;;;;;14.46;51.50;96980.91;10448930;28;20099;-29
2023/04/10 07:03:43;;;;;;;0.63;0.53;;;;;;;14.43;51.77;96983.38;10450794;28;20082;-29
2023/04/10 07:08:43;;;;;;;0.70;0.50;;;;;;;14.38;51.59;96978.25;10428947;28;20033;-29
2023/04/10 07:13:43;;;;;;;0.77;0.67;;;;;;;14.42;51.43;96989.22;10440530;28;20038;-28
2023/04/10 07:18:44;;;;;;;0.80;0.60;;;;;;;14.41;51.46;96984.97;10445572;28;20363;-28
2023/04/10 07:23:45;;;;;;;0.57;0.57;;;;;;;14.40;51.42;96984.16;10437185;28;20160;-28
2023/04/10 07:28:45;;;;;;;0.90;0.70;;;;;;;14.41;51.46;96988.34;10440485;28;20032;-28
2023/04/10 07:33:46;;;;;;;0.50;0.50;;;;;;;14.41;51.90;96990.88;10428645;28;20037;-28
2023/04/10 07:38:46;;;;;;;0.60;0.60;;;;;;;14.40;51.57;96979.09;10439646;28;20804;-29
2023/04/10 07:43:47;;;;;;;0.65;0.60;;;;;;;14.40;51.48;96988.31;10450677;28;20313;-28
2023/04/10 07:48:48;;;;;;;0.73;0.73;;;;;;;14.39;51.35;96984.97;10443999;28;20487;-28
2023/04/10 07:53:48;;;;;;;0.57;0.47;;;;;;;14.41;51.49;96987.50;10432672;28;20446;-28
2023/04/10 07:58:50;;;;;;;0.40;0.40;;;;;;;14.40;51.70;96994.22;10447759;28;20041;-28
2023/04/10 08:03:51;;;;;;;0.50;0.50;;;;;;;14.40;51.68;96994.22;10439260;28;20287;-29
2023/04/10 08:08:51;;;;;;;0.40;0.40;;;;;;;14.39;51.70;96994.19;10432749;28;20029;-28
2023/04/10 08:13:57;;;;;;;0.50;0.40;;;;;;;14.39;52.23;96977.41;10441533;28;20140;-28
2023/04/10 08:18:58;;;;;;;0.50;0.50;;;;;;;14.48;51.81;96977.59;10436509;28;20299;-28
2023/04/10 08:24:00;;;;;;;0.50;0.50;;;;;;;14.49;51.98;96974.25;10425534;28;20044;-28
2023/04/10 08:29:00;;;;;;;0.50;0.50;;;;;;;14.45;51.91;96977.50;10448420;28;20403;-28
2023/04/10 08:34:02;;;;;;;0.60;0.60;;;;;;;14.42;51.89;96982.50;10449638;28;20037;-28
2023/04/10 08:39:03;;;;;;;0.68;0.65;;;;;;;14.38;51.79;96977.38;10453208;28;20295;-28
2023/04/10 08:44:04;;;;;;;0.50;0.50;;;;;;;14.35;51.72;96983.19;10441209;28;20041;-28
2023/04/10 08:49:05;;;;;;;0.70;0.60;;;;;;;14.37;51.67;96974.03;10449250;28;20434;-29
2023/04/10 08:54:09;;;;;;;1.15;1.05;;;;;;;14.37;51.37;96974.03;10448991;28;20123;-29
2023/04/10 08:59:10;;;;;;;0.35;0.35;;;;;;;14.39;51.49;96956.41;10432244;28;20045;-28
2023/04/10 09:04:11;;;;;;;0.50;0.50;;;;;;;14.37;51.31;96963.09;10451006;28;20060;-28
2023/04/10 09:09:11;;;;;;;0.57;0.57;;;;;;;14.38;51.82;96965.66;10452091;28;20033;-30
2023/04/10 09:14:23;;;;;;;0.80;0.70;;;;;;;14.39;51.51;96961.44;10456637;28;20037;-28
2023/04/10 09:19:31;;;;;;;0.55;0.55;;;;;;;14.40;51.70;96951.41;10448233;28;20407;-28
2023/04/10 09:24:39;;;;;;;0.60;0.60;;;;;;;14.38;51.74;96947.16;10443418;28;20032;-28
2023/04/10 09:29:47;;;;;;;0.52;0.50;;;;;;;14.37;51.73;96947.97;10455490;28;20437;-29
2023/04/10 09:34:53;;;;;;;0.77;0.60;;;;;;;14.38;51.51;96930.38;10447210;28;20124;-28
2023/04/10 09:39:54;;;;;;;0.70;0.60;;;;;;;14.38;51.68;96920.31;10442611;28;20036;-29
2023/04/10 09:44:55;;;;;;;0.55;0.50;;;;;;;14.42;51.88;96924.56;10454505;28;20033;-28
2023/04/10 09:49:59;;;;;;;0.40;0.40;;;;;;;14.43;51.82;96923.75;10448553;28;20457;-28
2023/04/10 09:55:02;;;;;;;0.50;0.50;;;;;;;14.49;51.86;96926.38;10431621;28;20048;-28
2023/04/10 10:00:06;;;;;;;0.63;0.50;;;;;;;14.47;51.41;96923.00;10444829;28;20028;-29
2023/04/10 10:05:10;;;;;;;;;;;;;;;14.46;51.54;96913.75;10451514;28;20529;-29
2023/04/10 10:10:11;;;;;;;0.60;0.60;;;;;;;14.35;51.44;96895.06;10441177;28;19913;-28
2023/04/10 10:15:37;;;;;;;0.45;0.45;;;;;;;14.34;51.27;96903.44;10445658;28;20068;-30
2023/04/10 10:20:43;;;;;;;0.70;0.70;;;;;;;14.36;51.47;96891.72;10444731;28;20606;-28
2023/04/10 10:25:47;;;;;;;1.10;0.93;;;;;;;14.37;51.22;96882.50;10448760;28;20045;-28
2023/04/10 10:30:48;;;;;;;0.50;0.50;;;;;;;14.38;51.09;96880.00;10444831;28;20548;-28
2023/04/10 10:35:49;;;;;;;0.85;0.70;;;;;;;14.38;51.39;96879.16;10437369;28;20129;-28
2023/04/10 10:41:11;;;;;;;1.02;0.52;;;;;;;14.39;51.45;96875.81;10442630;28;20129;-28
2023/04/10 10:46:20;;;;;;;0.45;0.45;;;;;;;14.40;51.42;96880.03;10427922;28;20109;-30
2023/04/10 10:51:20;;;;;;;0.63;0.63;;;;;;;14.38;51.53;96871.59;10429134;28;20033;-29
2023/04/10 10:56:25;;;;;;;0.60;0.60;;;;;;;14.39;51.95;96875.81;10439134;28;20552;-28
2023/04/10 11:01:26;;;;;;;0.52;0.52;;;;;;;14.38;51.56;96864.03;10448700;28;20292;-28
2023/04/10 11:06:50;;;;;;;0.52;0.47;;;;;;;14.40;51.55;96858.22;10449952;28;20044;-29
2023/04/10 11:11:57;;;;;;;0.45;0.45;;;;;;;14.39;51.70;96856.53;10443838;28;20105;-29
2023/04/10 11:16:58;;;;;;;0.47;0.47;;;;;;;14.44;52.25;96859.13;10437571;28;20063;-29
2023/04/10 11:21:59;;;;;;;0.70;0.70;;;;;;;14.47;52.00;96855.00;10426675;28;20083;-28
2023/04/10 11:27:00;;;;;;;0.73;0.52;;;;;;;14.51;51.70;96856.72;10446351;28;20045;-28
2023/04/10 11:32:03;;;;;;;0.93;0.77;;;;;;;14.49;51.45;96858.38;10436768;28;20033;-28
2023/04/10 11:37:03;;;;;;;0.60;0.60;;;;;;;14.38;51.51;96847.28;10450829;28;20486;-28
2023/04/10 11:42:04;;;;;;;0.40;0.40;;;;;;;14.38;51.26;96844.75;10445549;28;20407;-29
2023/04/10 11:47:05;;;;;;;0.68;0.60;;;;;;;14.37;51.28;96840.53;10450538;28;20290;-29
2023/04/10 11:52:05;;;;;;;0.63;0.52;;;;;;;14.39;51.22;96843.06;10436237;28;20029;-29
2023/04/10 11:57:13;;;;;;;0.90;0.65;;;;;;;14.40;51.47;96858.22;10444740;28;20270;-28
2023/04/10 12:02:14;;;;;;;0.95;0.70;;;;;;;14.40;51.44;96860.75;10433773;28;20028;-28
2023/04/10 12:07:17;;;;;;;0.50;0.50;;;;;;;14.42;51.56;96863.28;10440986;28;20037;-28
2023/04/10 12:12:19;;;;;;;0.40;0.40;;;;;;;14.41;51.76;96854.00;10433685;28;20029;-29
2023/04/10 12:17:19;;;;;;;0.47;0.47;;;;;;;14.41;51.31;96844.81;10442319;28;20029;-29
2023/04/10 12:22:20;;;;;;;0.90;0.70;;;;;;;14.40;51.38;96830.50;10441049;28;20032;-30
2023/04/10 12:27:20;;;;;;;0.40;0.40;;;;;;;14.40;51.17;96830.50;10444097;28;20368;-28
2023/04/10 12:32:22;;;;;;;0.60;0.60;;;;;;;14.39;51.72;96826.31;10442617;28;20071;-28
2023/04/10 12:37:24;;;;;;;0.60;0.60;;;;;;;14.40;51.86;96828.00;10441226;28;20297;-28
2023/04/10 12:42:25;;;;;;;0.55;0.55;;;;;;;14.40;52.00;96820.44;10419204;28;20526;-28
2023/04/10 12:47:27;;;;;;;0.52;0.52;;;;;;;14.44;52.43;96824.69;10429419;28;20032;-28
2023/04/10 12:52:28;;;;;;;0.50;0.50;;;;;;;14.47;52.29;96817.22;10439389;28;20033;-28
2023/04/10 12:57:28;;;;;;;0.80;0.67;;;;;;;14.51;52.30;96816.41;10441711;28;20404;-28
2023/04/10 13:02:29;;;;;;;0.67;0.53;;;;;;;14.51;51.85;96816.41;10440472;28;20405;-28
2023/04/10 13:07:29;;;;;;;0.82;0.82;;;;;;;14.38;51.40;96804.47;10446914;28;20119;-29
2023/04/10 13:12:30;;;;;;;0.50;0.40;;;;;;;14.36;51.40;96811.13;10441642;28;20068;-29
2023/04/10 13:17:30;;;;;;;0.40;0.40;;;;;;;14.38;51.37;96799.44;10445280;28;20303;-28
2023/04/10 13:22:31;;;;;;;0.63;0.50;;;;;;;14.38;51.33;96793.53;10441079;28;20107;-29
2023/04/10 13:27:31;;;;;;;0.50;0.50;;;;;;;14.41;51.40;96793.56;10442009;28;20036;-28
2023/04/10 13:32:31;;;;;;;0.50;0.50;;;;;;;14.43;51.28;96795.28;10441136;28;20295;-29
2023/04/10 13:37:32;;;;;;;0.40;0.40;;;;;;;14.43;51.51;96786.91;10447331;28;20299;-28
2023/04/10 13:42:32;;;;;;;0.50;0.50;;;;;;;14.42;51.18;96778.50;10441046;28;20388;-28
2023/04/10 13:47:32;;;;;;;0.50;0.50;;;;;;;14.42;51.38;96770.94;10449518;28;20295;-28
2023/04/10 13:52:33;;;;;;;0.40;0.40;;;;;;;14.39;51.46;96750.75;10438412;28;20116;-28
2023/04/10 13:57:33;;;;;;;0.60;0.60;;;;;;;14.42;51.44;96748.28;10448677;28;20044;-29
2023/04/10 14:02:33;;;;;;;0.60;0.60;;;;;;;14.41;51.78;96746.56;10436824;28;20049;-28
2023/04/10 14:07:34;;;;;;;0.50;0.50;;;;;;;14.41;51.45;96744.06;10454135;28;20032;-29
2023/04/10 14:12:34;;;;;;;0.40;0.40;;;;;;;14.42;51.72;96739.88;10439919;28;20067;-28
2023/04/10 14:17:35;;;;;;;0.43;0.40;;;;;;;14.46;52.34;96731.53;10448106;28;20715;-28
2023/04/10 14:22:35;;;;;;;0.40;0.40;;;;;;;14.46;52.54;96732.41;10445276;28;20279;-28
2023/04/10 14:27:36;;;;;;;0.80;0.80;;;;;;;14.49;52.25;96729.91;10438404;28;20296;-28
2023/04/10 14:32:39;;;;;;;0.40;0.40;;;;;;;14.51;51.47;96725.75;10444861;28;20055;-28
2023/04/10 14:37:40;;;;;;;0.35;0.32;;;;;;;14.40;51.74;96722.22;10452539;28;20378;-29
2023/04/10 14:42:42;;;;;;;0.68;0.68;;;;;;;14.41;51.51;96728.09;10444564;28;20563;-29
2023/04/10 14:47:43;;;;;;;0.25;0.25;;;;;;;14.40;51.29;96724.75;10444209;28;20142;-28
2023/04/10 14:52:43;;;;;;;0.40;0.30;;;;;;;14.40;51.61;96716.31;10446215;28;20468;-28
2023/04/10 14:57:44;;;;;;;0.47;0.47;;;;;;;14.40;51.40;96712.16;10451569;28;20029;-28
2023/04/10 15:02:44;;;;;;;0.52;0.52;;;;;;;14.43;51.30;96707.16;10437160;28;20789;-29
2023/04/10 15:07:44;;;;;;;0.40;0.40;;;;;;;14.44;51.00;96713.03;10442634;28;20081;-29
2023/04/10 15:12:45;;;;;;;0.90;0.50;;;;;;;14.43;51.04;96692.03;10437756;28;20692;-28
2023/04/10 15:17:45;;;;;;;0.40;0.40;;;;;;;14.44;51.62;96688.69;10450110;28;20295;-28
2023/04/10 15:22:46;;;;;;;0.60;0.60;;;;;;;14.44;50.82;96683.66;10441979;28;20028;-29
2023/04/10 15:27:47;;;;;;;0.40;0.40;;;;;;;14.45;50.92;96676.97;10437963;28;20077;-28
2023/04/10 15:32:47;;;;;;;0.43;0.40;;;;;;;14.44;50.75;96676.09;10448106;28;20036;-28
2023/04/10 15:37:48;;;;;;;0.60;0.50;;;;;;;14.44;51.08;96652.59;10449220;28;20110;-29
2023/04/10 15:42:51;;;;;;;0.85;0.68;;;;;;;14.44;50.90;96663.50;10433830;28;20033;-28
2023/04/10 15:47:51;;;;;;;0.43;0.43;;;;;;;14.46;52.59;96656.84;10441657;28;20056;-28
2023/04/10 15:52:51;;;;;;;0.40;0.40;;;;;;;14.48;52.82;96657.69;10427513;28;20039;-28
2023/04/10 15:57:52;;;;;;;0.40;0.40;;;;;;;14.50;52.70;96653.53;10445130;28;20051;-28
2023/04/10 16:02:53;;;;;;;0.50;0.50;;;;;;;14.53;51.80;96653.56;10448396;28;20049;-28
2023/04/10 16:07:54;;;;;;;0.50;0.50;;;;;;;14.42;51.42;96655.09;10447445;28;20391;-28
2023/04/10 16:13:02;;;;;;;0.35;0.35;;;;;;;14.40;51.58;96644.16;10445343;28;20112;-29
2023/04/10 16:18:04;;;;;;;0.40;0.40;;;;;;;14.42;51.30;96639.97;10445916;28;20069;-29
2023/04/10 16:23:05;;;;;;;0.30;0.30;;;;;;;14.41;51.37;96625.69;10445703;28;20501;-28
2023/04/10 16:28:06;;;;;;;0.40;0.40;;;;;;;14.44;51.15;96633.28;10438092;28;20115;-28
2023/04/10 16:33:07;;;;;;;0.50;0.50;;;;;;;14.45;51.23;96649.25;10447666;28;20029;-28
2023/04/10 16:38:07;;;;;;;0.63;0.57;;;;;;;14.44;51.43;96638.31;10445139;28;20034;-28
2023/04/10 16:43:07;;;;;;;0.50;0.43;;;;;;;14.44;50.74;96632.44;10447022;28;20287;-28
2023/04/10 16:48:08;;;;;;;0.60;0.50;;;;;;;14.45;51.36;96624.06;10447440;28;20658;-28
2023/04/10 16:53:08;;;;;;;0.37;0.37;;;;;;;14.45;50.73;96619.84;10448193;28;20288;-28
2023/04/10 16:58:08;;;;;;;0.37;0.37;;;;;;;14.46;50.24;96636.69;10453945;28;20029;-28
2023/04/10 17:03:09;;;;;;;0.60;0.50;;;;;;;14.46;50.27;96636.69;10452341;28;20041;-28
2023/04/10 17:08:09;;;;;;;0.60;0.50;;;;;;;14.47;50.41;96637.53;10452191;28;20029;-28
2023/04/10 17:13:10;;;;;;;0.43;0.40;;;;;;;14.44;50.33;96615.66;10445491;28;20491;-30
2023/04/10 17:18:11;;;;;;;2.23;0.67;;;;;;;14.53;52.29;96610.72;10450680;28;20036;-29
2023/04/10 17:23:11;;;;;;;0.50;0.50;;;;;;;14.56;52.21;96623.41;10427750;28;20056;-28
2023/04/10 17:28:14;;;;;;;2.70;0.83;;;;;;;14.53;52.58;96614.94;10442572;28;20029;-29
2023/04/10 17:33:14;;;;;;;2.78;0.60;;;;;;;14.57;52.69;96620.03;10449022;28;20279;-29
2023/04/10 17:38:15;;;;;;;2.97;0.60;;;;;;;14.56;52.23;96613.31;10449109;28;20029;-29
2023/04/10 17:43:16;;;;;;;5.95;0.60;;;;;;;14.57;51.82;96612.47;10443577;28;20597;-29
2023/04/10 17:48:17;;;;;;;3.25;0.60;;;;;;;14.58;52.36;96618.34;10445340;28;20025;-29
2023/04/10 17:53:18;;;;;;;4.95;0.60;;;;;;;14.59;52.13;96632.66;10446478;28;20037;-28
2023/04/10 17:58:18;;;;;;;8.85;0.90;;;;;;;14.59;51.57;96628.47;10443903;28;20086;-29
2023/04/10 18:03:18;;;;;;;3.30;0.90;;;;;;;14.61;52.05;96621.75;10430976;28;20037;-29
2023/04/10 18:08:19;;;;;;;1.70;0.50;;;;;;;14.60;51.47;96604.97;10434156;28;20036;-29
2023/04/10 18:13:19;;;;;;;4.07;1.00;;;;;;;14.56;51.70;96588.13;10423350;28;20037;-30
2023/04/10 18:18:19;;;;;;;1.20;0.60;;;;;;;14.59;51.66;96603.28;10443004;28;20041;-28
2023/04/10 18:23:22;;;;;;;5.17;0.73;;;;;;;14.57;51.72;96594.84;10421669;28;20043;-29
2023/04/10 18:28:24;;;;;;;3.90;0.50;;;;;;;14.59;51.13;96603.28;10421993;28;20040;-30
2023/04/10 18:33:25;;;;;;;1.60;0.50;;;;;;;14.58;51.66;96610.78;10409119;28;20029;-29
2023/04/10 18:38:25;;;;;;;2.70;0.47;;;;;;;14.59;51.55;96636.00;10428538;28;20037;-29
2023/04/10 18:43:28;;;;;;;4.40;0.73;;;;;;;14.59;51.16;96632.66;10415431;28;20761;-29
2023/04/10 18:48:29;;;;;;;1.10;0.50;;;;;;;14.59;51.68;96653.66;10406148;28;20030;-29
2023/04/10 18:53:29;;;;;;;1.57;0.53;;;;;;;14.60;51.98;96657.03;10414030;28;20052;-29
2023/04/10 18:58:31;;;;;;;1.13;0.57;;;;;;;14.61;52.30;96662.06;10406763;28;20409;-29
2023/04/10 19:03:31;;;;;;;2.42;0.75;;;;;;;14.62;51.85;96668.78;10423549;28;20423;-29
2023/04/10 19:08:32;;;;;;;1.13;0.60;;;;;;;14.63;51.47;96674.69;10413540;28;20026;-29
2023/04/10 19:13:32;;;;;;;2.10;0.50;;;;;;;14.61;51.71;96677.19;10412927;28;20033;-29
2023/04/10 19:18:33;;;;;;;3.33;0.75;;;;;;;14.58;51.70;96659.53;10426313;28;20299;-29
2023/04/10 19:23:33;;;;;;;0.50;0.40;;;;;;;14.56;51.76;96673.78;10431870;28;20495;-30
2023/04/10 19:28:34;;;;;;;2.25;0.50;;;;;;;14.57;52.04;96680.50;10405728;28;20037;-29
2023/04/10 19:33:34;;;;;;;0.50;0.50;;;;;;;14.56;51.81;96691.41;10419423;28;20037;-29
2023/04/10 19:38:34;;;;;;;0.60;0.40;;;;;;;14.60;51.44;96694.81;10418729;28;20067;-29
2023/04/10 19:43:35;;;;;;;0.80;0.70;;;;;;;14.59;51.40;96699.00;10422160;28;20033;-29
2023/04/10 19:48:35;;;;;;;0.63;0.50;;;;;;;14.56;52.13;96693.06;10404018;28;20299;-29
2023/04/10 19:53:36;;;;;;;2.50;0.57;;;;;;;14.57;51.89;96698.13;10425665;28;20043;-29
2023/04/10 19:58:36;;;;;;;6.95;2.85;;;;;;;14.55;52.10;96697.28;10412907;28;20080;-29
2023/04/10 20:03:37;;;;;;;1.40;0.40;;;;;;;14.57;51.84;96694.75;10405484;28;20047;-29
2023/04/10 20:08:38;;;;;;;1.40;0.60;;;;;;;14.53;51.77;96703.94;10411960;28;20290;-29
2023/04/10 20:13:39;;;;;;;0.77;0.60;;;;;;;14.54;51.88;96693.06;10421895;28;20052;-30
2023/04/10 20:18:40;;;;;;;1.00;0.70;;;;;;;14.55;51.92;96707.34;10423741;28;20041;-30
2023/04/10 20:23:40;;;;;;;1.00;0.60;;;;;;;14.59;52.08;96723.34;10405400;28;20385;-28
2023/04/10 20:28:40;;;;;;;1.37;0.57;;;;;;;14.59;52.23;96693.97;10426163;28;20036;-29
2023/04/10 20:33:41;;;;;;;0.40;0.40;;;;;;;14.62;51.95;96694.00;10428809;28;20048;-29
2023/04/10 20:38:41;;;;;;;0.40;0.37;;;;;;;14.63;51.53;96680.59;10424076;28;20294;-29
2023/04/10 20:43:42;;;;;;;1.27;0.33;;;;;;;14.58;51.63;96656.13;10412234;28;20287;-29
2023/04/10 20:48:42;;;;;;;0.30;0.30;;;;;;;14.57;51.74;96651.94;10427665;28;20753;-29
2023/04/10 20:53:42;;;;;;;0.83;0.40;;;;;;;14.56;52.08;96661.19;10420332;28;20310;-28
2023/04/10 20:58:43;;;;;;;0.50;0.50;;;;;;;14.56;51.89;96660.31;10436123;28;20041;-29
2023/04/10 21:03:43;;;;;;;0.40;0.40;;;;;;;14.54;52.08;96640.16;10428575;28;20407;-29
2023/04/10 21:08:43;;;;;;;0.83;0.50;;;;;;;14.55;52.00;96615.81;10411596;28;20558;-29
2023/04/10 21:13:44;;;;;;;0.40;0.40;;;;;;;14.54;51.59;96579.72;10427847;28;20341;-29
2023/04/10 21:18:46;;;;;;;0.85;0.40;;;;;;;14.54;51.66;96589.78;10418955;28;20048;-29
2023/04/10 21:23:46;;;;;;;0.50;0.50;;;;;;;14.54;51.97;96587.25;10419335;28;20342;-29
2023/04/10 21:28:46;;;;;;;1.30;0.40;;;;;;;14.56;51.88;96604.91;10434677;28;20402;-29
2023/04/10 21:33:47;;;;;;;1.17;0.53;;;;;;;14.56;51.91;96598.19;10419545;28;20033;-28
2023/04/10 21:38:47;;;;;;;0.50;0.40;;;;;;;14.59;51.57;96588.16;10434498;28;20062;-29
2023/04/10 21:43:48;;;;;;;0.37;0.33;;;;;;;14.54;51.53;96584.75;10423710;28;20029;-29
2023/04/10 21:48:48;;;;;;;2.38;0.50;;;;;;;14.64;51.68;96591.59;10428250;28;20029;-28
2023/04/10 21:53:48;;;;;;;2.13;0.47;;;;;;;14.61;52.11;96573.91;10435908;28;20066;-29
2023/04/10 21:58:52;;;;;;;2.28;0.55;;;;;;;14.64;52.22;96580.66;10442000;28;20518;-30
2023/04/10 22:03:52;;;;;;;0.68;0.38;;;;;;;14.65;51.63;96570.59;10440529;28;20037;-28
2023/04/10 22:08:53;;;;;;;1.35;0.38;;;;;;;14.67;51.29;96568.13;10439263;28;20045;-29
2023/04/10 22:13:53;;;;;;;0.90;0.40;;;;;;;14.64;51.87;96557.97;10410157;28;20033;-29
2023/04/10 22:18:53;;;;;;;0.70;0.40;;;;;;;14.62;51.39;96557.13;10423500;28;20076;-28
2023/04/10 22:23:54;;;;;;;0.40;0.37;;;;;;;14.61;51.85;96538.63;10410005;28;20103;-30
2023/04/10 22:28:54;;;;;;;0.50;0.30;;;;;;;14.61;51.76;96531.06;10431615;28;20447;-29
2023/04/10 22:33:55;;;;;;;0.85;0.30;;;;;;;14.60;51.98;96524.34;10424799;28;20086;-28
2023/04/10 22:38:55;;;;;;;0.30;0.30;;;;;;;14.60;51.87;96499.16;10429119;28;20051;-29
2023/04/10 22:43:56;;;;;;;1.00;0.40;;;;;;;14.59;51.77;96487.41;10416431;28;20424;-28
2023/04/10 22:48:56;;;;;;;0.85;0.50;;;;;;;14.59;51.61;96484.88;10413380;28;20463;-29
2023/04/10 22:53:57;;;;;;;0.43;0.33;;;;;;;14.56;51.72;96467.22;10426165;28;20107;-29
2023/04/10 22:58:57;;;;;;;0.98;0.45;;;;;;;14.57;51.65;96443.72;10410571;28;20296;-29
2023/04/10 23:03:57;;;;;;;0.45;0.40;;;;;;;14.57;51.82;96433.63;10418973;28;20150;-28
2023/04/10 23:08:58;;;;;;;0.50;0.50;;;;;;;14.57;52.03;96413.50;10419036;28;20033;-29
2023/04/10 23:13:58;;;;;;;0.40;0.30;;;;;;;14.60;52.11;96428.63;10410601;28;20083;-29
2023/04/10 23:18:58;;;;;;;0.77;0.50;;;;;;;14.61;52.20;96449.63;10418243;28;20442;-29
2023/04/10 23:23:59;;;;;;;1.33;0.55;;;;;;;14.64;52.26;96445.47;10426808;28;20306;-30
2023/04/10 23:28:59;;;;;;;1.03;0.30;;;;;;;14.65;52.06;96467.31;10417976;28;20037;-29